sensor_id;sensor_type;location;lat;lon;timestamp;P1;durP1;ratioP1;P2;durP2;ratioP2
4821;SDS011;2425;47.794;13.068;2022-07-29T00:02:02;2.40;;;2.30;;
4821;SDS011;2425;47.794;13.068;2022-07-29T00:04:29;2.40;;;2.20;;
4821;SDS011;2425;47.794;13.068;2022-07-29T00:06:55;2.07;;;2.07;;
4821;SDS011;2425;47.794;13.068;2022-07-29T00:09:22;2.30;;;2.20;;
4821;SDS011;2425;47.794;13.068;2022-07-29T00:11:49;1.87;;;1.83;;
4821;SDS011;2425;47.794;13.068;2022-07-29T00:14:16;1.93;;;1.90;;
4821;SDS011;2425;47.794;13.068;2022-07-29T00:16:42;1.63;;;1.63;;
4821;SDS011;2425;47.794;13.068;2022-07-29T00:19:10;1.80;;;1.70;;
4821;SDS011;2425;47.794;13.068;2022-07-29T00:21:37;2.03;;;2.03;;
4821;SDS011;2425;47.794;13.068;2022-07-29T00:24:04;2.13;;;2.03;;
4821;SDS011;2425;47.794;13.068;2022-07-29T00:26:31;1.50;;;1.50;;
4821;SDS011;2425;47.794;13.068;2022-07-29T00:28:58;1.80;;;1.70;;
4821;SDS011;2425;47.794;13.068;2022-07-29T00:31:25;2.10;;;2.10;;
4821;SDS011;2425;47.794;13.068;2022-07-29T00:33:52;2.20;;;2.10;;
4821;SDS011;2425;47.794;13.068;2022-07-29T00:36:20;1.60;;;1.60;;
4821;SDS011;2425;47.794;13.068;2022-07-29T00:38:46;1.90;;;1.90;;
4821;SDS011;2425;47.794;13.068;2022-07-29T00:41:13;1.70;;;1.70;;
4821;SDS011;2425;47.794;13.068;2022-07-29T00:43:39;1.93;;;1.83;;
4821;SDS011;2425;47.794;13.068;2022-07-29T00:46:06;1.83;;;1.73;;
4821;SDS011;2425;47.794;13.068;2022-07-29T00:48:33;2.30;;;2.20;;
4821;SDS011;2425;47.794;13.068;2022-07-29T00:51:01;1.70;;;1.70;;
4821;SDS011;2425;47.794;13.068;2022-07-29T00:53:33;1.67;;;1.67;;
4821;SDS011;2425;47.794;13.068;2022-07-29T00:56:02;1.90;;;1.90;;
4821;SDS011;2425;47.794;13.068;2022-07-29T00:58:28;1.57;;;1.57;;
4821;SDS011;2425;47.794;13.068;2022-07-29T01:00:55;2.23;;;2.13;;
4821;SDS011;2425;47.794;13.068;2022-07-29T01:03:22;1.80;;;1.70;;
4821;SDS011;2425;47.794;13.068;2022-07-29T01:05:49;1.77;;;1.77;;
4821;SDS011;2425;47.794;13.068;2022-07-29T01:08:16;1.60;;;1.60;;
4821;SDS011;2425;47.794;13.068;2022-07-29T01:10:45;1.93;;;1.93;;
4821;SDS011;2425;47.794;13.068;2022-07-29T01:13:12;2.10;;;2.00;;
4821;SDS011;2425;47.794;13.068;2022-07-29T01:15:42;1.77;;;1.67;;
4821;SDS011;2425;47.794;13.068;2022-07-29T01:18:11;1.80;;;1.80;;
4821;SDS011;2425;47.794;13.068;2022-07-29T01:20:44;1.90;;;1.90;;
4821;SDS011;2425;47.794;13.068;2022-07-29T01:23:27;1.90;;;1.80;;
4821;SDS011;2425;47.794;13.068;2022-07-29T01:26:12;2.00;;;1.90;;
4821;SDS011;2425;47.794;13.068;2022-07-29T01:29:02;1.80;;;1.80;;
4821;SDS011;2425;47.794;13.068;2022-07-29T01:31:33;1.80;;;1.70;;
4821;SDS011;2425;47.794;13.068;2022-07-29T01:34:15;1.90;;;1.90;;
4821;SDS011;2425;47.794;13.068;2022-07-29T01:36:46;1.70;;;1.60;;
4821;SDS011;2425;47.794;13.068;2022-07-29T01:39:18;1.90;;;1.90;;
4821;SDS011;2425;47.794;13.068;2022-07-29T01:41:48;1.77;;;1.73;;
4821;SDS011;2425;47.794;13.068;2022-07-29T01:44:20;1.87;;;1.77;;
4821;SDS011;2425;47.794;13.068;2022-07-29T01:46:50;1.57;;;1.53;;
4821;SDS011;2425;47.794;13.068;2022-07-29T01:49:21;1.40;;;1.40;;
4821;SDS011;2425;47.794;13.068;2022-07-29T01:51:51;1.43;;;1.43;;
4821;SDS011;2425;47.794;13.068;2022-07-29T01:54:21;1.50;;;1.50;;
4821;SDS011;2425;47.794;13.068;2022-07-29T01:56:53;1.70;;;1.70;;
4821;SDS011;2425;47.794;13.068;2022-07-29T01:59:23;1.90;;;1.90;;
4821;SDS011;2425;47.794;13.068;2022-07-29T02:01:52;1.57;;;1.53;;
4821;SDS011;2425;47.794;13.068;2022-07-29T02:04:20;1.30;;;1.30;;
4821;SDS011;2425;47.794;13.068;2022-07-29T02:06:47;1.70;;;1.70;;
4821;SDS011;2425;47.794;13.068;2022-07-29T02:09:16;1.73;;;1.73;;
4821;SDS011;2425;47.794;13.068;2022-07-29T02:11:46;1.40;;;1.40;;
4821;SDS011;2425;47.794;13.068;2022-07-29T02:14:14;1.33;;;1.33;;
4821;SDS011;2425;47.794;13.068;2022-07-29T02:16:43;1.50;;;1.50;;
4821;SDS011;2425;47.794;13.068;2022-07-29T02:19:11;1.97;;;1.97;;
4821;SDS011;2425;47.794;13.068;2022-07-29T02:21:38;1.60;;;1.60;;
4821;SDS011;2425;47.794;13.068;2022-07-29T02:24:06;1.60;;;1.60;;
4821;SDS011;2425;47.794;13.068;2022-07-29T02:26:33;1.60;;;1.60;;
4821;SDS011;2425;47.794;13.068;2022-07-29T02:29:00;1.70;;;1.60;;
4821;SDS011;2425;47.794;13.068;2022-07-29T02:31:30;1.50;;;1.50;;
4821;SDS011;2425;47.794;13.068;2022-07-29T02:34:01;1.43;;;1.43;;
4821;SDS011;2425;47.794;13.068;2022-07-29T02:36:28;1.60;;;1.60;;
4821;SDS011;2425;47.794;13.068;2022-07-29T02:38:56;1.50;;;1.50;;
4821;SDS011;2425;47.794;13.068;2022-07-29T02:41:28;1.20;;;1.20;;
4821;SDS011;2425;47.794;13.068;2022-07-29T02:43:56;1.67;;;1.30;;
4821;SDS011;2425;47.794;13.068;2022-07-29T02:46:26;1.40;;;1.40;;
4821;SDS011;2425;47.794;13.068;2022-07-29T02:48:58;1.40;;;1.40;;
4821;SDS011;2425;47.794;13.068;2022-07-29T02:51:28;1.90;;;1.50;;
4821;SDS011;2425;47.794;13.068;2022-07-29T02:54:01;1.53;;;1.53;;
4821;SDS011;2425;47.794;13.068;2022-07-29T02:56:30;1.60;;;1.60;;
4821;SDS011;2425;47.794;13.068;2022-07-29T02:59:00;1.70;;;1.70;;
4821;SDS011;2425;47.794;13.068;2022-07-29T03:01:31;1.40;;;1.40;;
4821;SDS011;2425;47.794;13.068;2022-07-29T03:04:01;1.47;;;1.47;;
4821;SDS011;2425;47.794;13.068;2022-07-29T03:06:30;1.17;;;1.17;;
4821;SDS011;2425;47.794;13.068;2022-07-29T03:08:57;1.30;;;1.30;;
4821;SDS011;2425;47.794;13.068;2022-07-29T03:11:25;1.30;;;1.30;;
4821;SDS011;2425;47.794;13.068;2022-07-29T03:13:53;1.70;;;1.60;;
4821;SDS011;2425;47.794;13.068;2022-07-29T03:16:20;1.43;;;1.43;;
4821;SDS011;2425;47.794;13.068;2022-07-29T03:18:48;1.50;;;1.50;;
4821;SDS011;2425;47.794;13.068;2022-07-29T03:21:17;1.50;;;1.40;;
4821;SDS011;2425;47.794;13.068;2022-07-29T03:23:44;1.27;;;1.27;;
4821;SDS011;2425;47.794;13.068;2022-07-29T03:26:11;1.33;;;1.33;;
4821;SDS011;2425;47.794;13.068;2022-07-29T03:28:38;1.50;;;1.50;;
4821;SDS011;2425;47.794;13.068;2022-07-29T03:31:05;1.30;;;1.30;;
4821;SDS011;2425;47.794;13.068;2022-07-29T03:33:31;1.30;;;1.30;;
4821;SDS011;2425;47.794;13.068;2022-07-29T03:36:02;1.20;;;1.20;;
4821;SDS011;2425;47.794;13.068;2022-07-29T03:38:49;1.50;;;1.50;;
4821;SDS011;2425;47.794;13.068;2022-07-29T03:41:20;2.67;;;1.27;;
4821;SDS011;2425;47.794;13.068;2022-07-29T03:43:49;1.40;;;1.40;;
4821;SDS011;2425;47.794;13.068;2022-07-29T03:46:16;1.80;;;1.77;;
4821;SDS011;2425;47.794;13.068;2022-07-29T03:48:46;1.63;;;1.63;;
4821;SDS011;2425;47.794;13.068;2022-07-29T03:51:15;1.70;;;1.67;;
4821;SDS011;2425;47.794;13.068;2022-07-29T03:53:43;1.20;;;1.20;;
4821;SDS011;2425;47.794;13.068;2022-07-29T03:56:10;1.50;;;1.50;;
4821;SDS011;2425;47.794;13.068;2022-07-29T03:58:38;1.43;;;1.43;;
4821;SDS011;2425;47.794;13.068;2022-07-29T04:01:05;1.23;;;1.23;;
4821;SDS011;2425;47.794;13.068;2022-07-29T04:03:32;1.30;;;1.30;;
4821;SDS011;2425;47.794;13.068;2022-07-29T04:06:00;1.30;;;1.30;;
4821;SDS011;2425;47.794;13.068;2022-07-29T04:08:27;1.20;;;1.20;;
4821;SDS011;2425;47.794;13.068;2022-07-29T04:10:56;1.33;;;1.33;;
4821;SDS011;2425;47.794;13.068;2022-07-29T04:13:23;1.23;;;1.23;;
4821;SDS011;2425;47.794;13.068;2022-07-29T04:15:49;1.33;;;1.33;;
4821;SDS011;2425;47.794;13.068;2022-07-29T04:18:16;1.47;;;1.37;;
4821;SDS011;2425;47.794;13.068;2022-07-29T04:20:43;1.10;;;1.10;;
4821;SDS011;2425;47.794;13.068;2022-07-29T04:23:10;1.23;;;1.23;;
4821;SDS011;2425;47.794;13.068;2022-07-29T04:25:37;1.50;;;1.50;;
4821;SDS011;2425;47.794;13.068;2022-07-29T04:28:06;1.57;;;1.50;;
4821;SDS011;2425;47.794;13.068;2022-07-29T04:30:34;1.20;;;1.20;;
4821;SDS011;2425;47.794;13.068;2022-07-29T04:33:01;1.10;;;1.10;;
4821;SDS011;2425;47.794;13.068;2022-07-29T04:35:30;1.30;;;1.30;;
4821;SDS011;2425;47.794;13.068;2022-07-29T04:37:57;1.40;;;1.40;;
4821;SDS011;2425;47.794;13.068;2022-07-29T04:40:23;1.33;;;1.33;;
4821;SDS011;2425;47.794;13.068;2022-07-29T04:42:50;1.50;;;1.50;;
4821;SDS011;2425;47.794;13.068;2022-07-29T04:45:18;1.00;;;1.00;;
4821;SDS011;2425;47.794;13.068;2022-07-29T04:47:45;1.20;;;1.20;;
4821;SDS011;2425;47.794;13.068;2022-07-29T04:50:12;1.10;;;1.10;;
4821;SDS011;2425;47.794;13.068;2022-07-29T04:52:39;1.40;;;1.40;;
4821;SDS011;2425;47.794;13.068;2022-07-29T04:55:06;1.30;;;1.30;;
4821;SDS011;2425;47.794;13.068;2022-07-29T04:57:33;1.30;;;1.30;;
4821;SDS011;2425;47.794;13.068;2022-07-29T05:00:00;1.10;;;1.10;;
4821;SDS011;2425;47.794;13.068;2022-07-29T05:02:28;1.23;;;1.23;;
4821;SDS011;2425;47.794;13.068;2022-07-29T05:04:55;1.07;;;1.07;;
4821;SDS011;2425;47.794;13.068;2022-07-29T05:07:22;1.30;;;1.30;;
4821;SDS011;2425;47.794;13.068;2022-07-29T05:09:48;1.30;;;1.30;;
4821;SDS011;2425;47.794;13.068;2022-07-29T05:12:15;1.20;;;1.20;;
4821;SDS011;2425;47.794;13.068;2022-07-29T05:14:42;1.10;;;1.10;;
4821;SDS011;2425;47.794;13.068;2022-07-29T05:17:09;1.20;;;1.20;;
4821;SDS011;2425;47.794;13.068;2022-07-29T05:19:37;1.43;;;1.43;;
4821;SDS011;2425;47.794;13.068;2022-07-29T05:22:04;1.30;;;1.30;;
4821;SDS011;2425;47.794;13.068;2022-07-29T05:24:30;1.27;;;1.27;;
4821;SDS011;2425;47.794;13.068;2022-07-29T05:26:57;1.33;;;1.33;;
4821;SDS011;2425;47.794;13.068;2022-07-29T05:29:24;1.00;;;1.00;;
4821;SDS011;2425;47.794;13.068;2022-07-29T05:31:51;1.53;;;1.43;;
4821;SDS011;2425;47.794;13.068;2022-07-29T05:34:18;1.33;;;1.23;;
4821;SDS011;2425;47.794;13.068;2022-07-29T05:36:46;1.10;;;1.10;;
4821;SDS011;2425;47.794;13.068;2022-07-29T05:39:13;1.10;;;1.10;;
4821;SDS011;2425;47.794;13.068;2022-07-29T05:41:40;1.20;;;1.20;;
4821;SDS011;2425;47.794;13.068;2022-07-29T05:44:07;1.30;;;1.30;;
4821;SDS011;2425;47.794;13.068;2022-07-29T05:46:34;1.23;;;1.23;;
4821;SDS011;2425;47.794;13.068;2022-07-29T05:49:01;1.10;;;1.10;;
4821;SDS011;2425;47.794;13.068;2022-07-29T05:51:27;1.40;;;1.40;;
4821;SDS011;2425;47.794;13.068;2022-07-29T05:53:56;1.10;;;1.10;;
4821;SDS011;2425;47.794;13.068;2022-07-29T05:56:23;1.20;;;1.20;;
4821;SDS011;2425;47.794;13.068;2022-07-29T05:58:49;1.20;;;1.20;;
4821;SDS011;2425;47.794;13.068;2022-07-29T06:01:16;1.07;;;1.07;;
4821;SDS011;2425;47.794;13.068;2022-07-29T06:03:43;1.17;;;1.17;;
4821;SDS011;2425;47.794;13.068;2022-07-29T06:06:10;1.17;;;1.17;;
4821;SDS011;2425;47.794;13.068;2022-07-29T06:08:37;1.40;;;1.40;;
4821;SDS011;2425;47.794;13.068;2022-07-29T06:11:06;1.40;;;1.40;;
4821;SDS011;2425;47.794;13.068;2022-07-29T06:13:33;1.30;;;1.30;;
4821;SDS011;2425;47.794;13.068;2022-07-29T06:16:00;1.20;;;1.20;;
4821;SDS011;2425;47.794;13.068;2022-07-29T06:18:27;1.30;;;1.20;;
4821;SDS011;2425;47.794;13.068;2022-07-29T06:20:54;1.40;;;1.40;;
4821;SDS011;2425;47.794;13.068;2022-07-29T06:23:21;1.53;;;1.30;;
4821;SDS011;2425;47.794;13.068;2022-07-29T06:25:47;1.03;;;1.03;;
4821;SDS011;2425;47.794;13.068;2022-07-29T06:28:16;1.23;;;1.23;;
4821;SDS011;2425;47.794;13.068;2022-07-29T06:30:42;1.17;;;1.17;;
4821;SDS011;2425;47.794;13.068;2022-07-29T06:33:09;1.43;;;1.43;;
4821;SDS011;2425;47.794;13.068;2022-07-29T06:35:36;1.20;;;1.10;;
4821;SDS011;2425;47.794;13.068;2022-07-29T06:38:04;1.20;;;1.20;;
4821;SDS011;2425;47.794;13.068;2022-07-29T06:40:30;1.33;;;1.33;;
4821;SDS011;2425;47.794;13.068;2022-07-29T06:43:16;1.30;;;1.20;;
4821;SDS011;2425;47.794;13.068;2022-07-29T06:45:43;1.30;;;1.30;;
4821;SDS011;2425;47.794;13.068;2022-07-29T06:48:09;2.30;;;2.20;;
4821;SDS011;2425;47.794;13.068;2022-07-29T06:50:36;3.03;;;2.83;;
4821;SDS011;2425;47.794;13.068;2022-07-29T06:53:04;2.77;;;2.30;;
4821;SDS011;2425;47.794;13.068;2022-07-29T06:55:31;2.77;;;2.57;;
4821;SDS011;2425;47.794;13.068;2022-07-29T06:57:58;2.20;;;2.10;;
4821;SDS011;2425;47.794;13.068;2022-07-29T07:00:26;5.90;;;2.77;;
4821;SDS011;2425;47.794;13.068;2022-07-29T07:02:53;2.60;;;2.40;;
4821;SDS011;2425;47.794;13.068;2022-07-29T07:05:19;1.90;;;1.80;;
4821;SDS011;2425;47.794;13.068;2022-07-29T07:07:46;2.13;;;2.03;;
4821;SDS011;2425;47.794;13.068;2022-07-29T07:10:13;1.83;;;1.70;;
4821;SDS011;2425;47.794;13.068;2022-07-29T07:12:40;2.80;;;2.00;;
4821;SDS011;2425;47.794;13.068;2022-07-29T07:15:07;3.43;;;2.00;;
4821;SDS011;2425;47.794;13.068;2022-07-29T07:17:35;2.13;;;2.03;;
4821;SDS011;2425;47.794;13.068;2022-07-29T07:20:04;2.40;;;2.30;;
4821;SDS011;2425;47.794;13.068;2022-07-29T07:22:31;1.90;;;1.80;;
4821;SDS011;2425;47.794;13.068;2022-07-29T07:24:58;2.23;;;2.00;;
4821;SDS011;2425;47.794;13.068;2022-07-29T07:27:25;1.73;;;1.73;;
4821;SDS011;2425;47.794;13.068;2022-07-29T07:29:52;2.23;;;2.10;;
4821;SDS011;2425;47.794;13.068;2022-07-29T07:32:19;1.90;;;1.80;;
4821;SDS011;2425;47.794;13.068;2022-07-29T07:34:47;1.60;;;1.60;;
4821;SDS011;2425;47.794;13.068;2022-07-29T07:37:14;2.17;;;2.07;;
4821;SDS011;2425;47.794;13.068;2022-07-29T07:39:40;2.00;;;1.90;;
4821;SDS011;2425;47.794;13.068;2022-07-29T07:42:07;4.23;;;1.67;;
4821;SDS011;2425;47.794;13.068;2022-07-29T07:44:36;1.70;;;1.70;;
4821;SDS011;2425;47.794;13.068;2022-07-29T07:47:03;1.90;;;1.90;;
4821;SDS011;2425;47.794;13.068;2022-07-29T07:49:29;2.80;;;2.00;;
4821;SDS011;2425;47.794;13.068;2022-07-29T07:51:58;3.87;;;1.77;;
4821;SDS011;2425;47.794;13.068;2022-07-29T07:54:24;2.30;;;2.10;;
4821;SDS011;2425;47.794;13.068;2022-07-29T07:56:51;2.30;;;2.20;;
4821;SDS011;2425;47.794;13.068;2022-07-29T07:59:18;2.30;;;2.10;;
4821;SDS011;2425;47.794;13.068;2022-07-29T08:01:45;3.67;;;2.10;;
4821;SDS011;2425;47.794;13.068;2022-07-29T08:04:11;2.40;;;2.30;;
4821;SDS011;2425;47.794;13.068;2022-07-29T08:06:38;17.27;;;2.00;;
4821;SDS011;2425;47.794;13.068;2022-07-29T08:09:06;2.27;;;2.17;;
4821;SDS011;2425;47.794;13.068;2022-07-29T08:11:33;2.53;;;2.43;;
4821;SDS011;2425;47.794;13.068;2022-07-29T08:14:00;3.13;;;2.33;;
4821;SDS011;2425;47.794;13.068;2022-07-29T08:16:27;2.10;;;2.00;;
4821;SDS011;2425;47.794;13.068;2022-07-29T08:18:54;4.70;;;2.30;;
4821;SDS011;2425;47.794;13.068;2022-07-29T08:21:22;2.67;;;2.47;;
4821;SDS011;2425;47.794;13.068;2022-07-29T08:23:49;2.20;;;2.00;;
4821;SDS011;2425;47.794;13.068;2022-07-29T08:26:19;2.10;;;2.00;;
4821;SDS011;2425;47.794;13.068;2022-07-29T08:28:47;4.40;;;1.97;;
4821;SDS011;2425;47.794;13.068;2022-07-29T08:31:15;2.00;;;2.00;;
4821;SDS011;2425;47.794;13.068;2022-07-29T08:33:43;2.93;;;2.20;;
4821;SDS011;2425;47.794;13.068;2022-07-29T08:36:10;1.70;;;1.70;;
4821;SDS011;2425;47.794;13.068;2022-07-29T08:38:38;2.43;;;1.70;;
4821;SDS011;2425;47.794;13.068;2022-07-29T08:41:04;2.73;;;1.97;;
4821;SDS011;2425;47.794;13.068;2022-07-29T08:43:33;5.23;;;1.93;;
4821;SDS011;2425;47.794;13.068;2022-07-29T08:46:02;1.70;;;1.70;;
4821;SDS011;2425;47.794;13.068;2022-07-29T08:48:29;2.10;;;2.00;;
4821;SDS011;2425;47.794;13.068;2022-07-29T08:50:56;1.93;;;1.83;;
4821;SDS011;2425;47.794;13.068;2022-07-29T08:53:23;2.30;;;1.70;;
4821;SDS011;2425;47.794;13.068;2022-07-29T08:55:51;4.90;;;2.00;;
4821;SDS011;2425;47.794;13.068;2022-07-29T08:58:18;2.10;;;1.90;;
4821;SDS011;2425;47.794;13.068;2022-07-29T09:00:49;2.23;;;1.97;;
4821;SDS011;2425;47.794;13.068;2022-07-29T09:03:18;1.80;;;1.80;;
4821;SDS011;2425;47.794;13.068;2022-07-29T09:05:47;1.97;;;1.87;;
4821;SDS011;2425;47.794;13.068;2022-07-29T09:08:15;2.23;;;2.13;;
4821;SDS011;2425;47.794;13.068;2022-07-29T09:10:42;1.93;;;1.83;;
4821;SDS011;2425;47.794;13.068;2022-07-29T09:13:09;2.10;;;1.90;;
4821;SDS011;2425;47.794;13.068;2022-07-29T09:15:36;2.97;;;2.00;;
4821;SDS011;2425;47.794;13.068;2022-07-29T09:18:04;2.20;;;1.60;;
4821;SDS011;2425;47.794;13.068;2022-07-29T09:20:31;1.60;;;1.50;;
4821;SDS011;2425;47.794;13.068;2022-07-29T09:23:12;2.10;;;2.00;;
4821;SDS011;2425;47.794;13.068;2022-07-29T09:25:39;2.20;;;1.93;;
4821;SDS011;2425;47.794;13.068;2022-07-29T09:28:07;1.90;;;1.80;;
4821;SDS011;2425;47.794;13.068;2022-07-29T09:30:34;3.90;;;2.03;;
4821;SDS011;2425;47.794;13.068;2022-07-29T09:33:03;2.40;;;2.27;;
4821;SDS011;2425;47.794;13.068;2022-07-29T09:35:31;2.20;;;2.10;;
4821;SDS011;2425;47.794;13.068;2022-07-29T09:37:58;1.90;;;1.80;;
4821;SDS011;2425;47.794;13.068;2022-07-29T09:40:36;1.60;;;1.60;;
4821;SDS011;2425;47.794;13.068;2022-07-29T09:43:09;1.83;;;1.73;;
4821;SDS011;2425;47.794;13.068;2022-07-29T09:45:36;1.90;;;1.80;;
4821;SDS011;2425;47.794;13.068;2022-07-29T09:48:13;2.00;;;1.63;;
4821;SDS011;2425;47.794;13.068;2022-07-29T09:50:41;1.70;;;1.60;;
4821;SDS011;2425;47.794;13.068;2022-07-29T09:53:10;1.90;;;1.80;;
4821;SDS011;2425;47.794;13.068;2022-07-29T09:55:47;1.90;;;1.80;;
4821;SDS011;2425;47.794;13.068;2022-07-29T09:58:15;1.83;;;1.73;;
4821;SDS011;2425;47.794;13.068;2022-07-29T10:00:43;1.97;;;1.87;;
4821;SDS011;2425;47.794;13.068;2022-07-29T10:03:10;2.10;;;2.00;;
4821;SDS011;2425;47.794;13.068;2022-07-29T10:05:39;5.80;;;2.07;;
4821;SDS011;2425;47.794;13.068;2022-07-29T10:08:07;6.80;;;1.83;;
4821;SDS011;2425;47.794;13.068;2022-07-29T10:10:35;2.03;;;1.93;;
4821;SDS011;2425;47.794;13.068;2022-07-29T10:13:03;2.53;;;2.27;;
4821;SDS011;2425;47.794;13.068;2022-07-29T10:15:32;3.07;;;2.10;;
4821;SDS011;2425;47.794;13.068;2022-07-29T10:18:02;1.90;;;1.80;;
4821;SDS011;2425;47.794;13.068;2022-07-29T10:20:29;2.30;;;2.20;;
4821;SDS011;2425;47.794;13.068;2022-07-29T10:22:57;2.10;;;2.00;;
4821;SDS011;2425;47.794;13.068;2022-07-29T10:25:24;2.13;;;2.03;;
4821;SDS011;2425;47.794;13.068;2022-07-29T10:27:51;2.50;;;2.00;;
4821;SDS011;2425;47.794;13.068;2022-07-29T10:30:19;2.40;;;2.30;;
4821;SDS011;2425;47.794;13.068;2022-07-29T10:32:53;1.77;;;1.77;;
4821;SDS011;2425;47.794;13.068;2022-07-29T10:38:27;2.00;;;1.90;;
4821;SDS011;2425;47.794;13.068;2022-07-29T10:41:05;2.00;;;1.90;;
4821;SDS011;2425;47.794;13.068;2022-07-29T10:43:53;2.50;;;1.50;;
4821;SDS011;2425;47.794;13.068;2022-07-29T10:46:22;1.60;;;1.50;;
4821;SDS011;2425;47.794;13.068;2022-07-29T10:49:06;1.60;;;1.60;;
4821;SDS011;2425;47.794;13.068;2022-07-29T10:54:44;1.60;;;1.60;;
4821;SDS011;2425;47.794;13.068;2022-07-29T10:57:20;1.50;;;1.50;;
4821;SDS011;2425;47.794;13.068;2022-07-29T10:59:50;1.80;;;1.70;;
4821;SDS011;2425;47.794;13.068;2022-07-29T11:05:17;8.93;;;1.70;;
4821;SDS011;2425;47.794;13.068;2022-07-29T11:10:50;2.10;;;2.00;;
4821;SDS011;2425;47.794;13.068;2022-07-29T11:16:13;1.93;;;1.83;;
4821;SDS011;2425;47.794;13.068;2022-07-29T11:21:41;2.20;;;2.10;;
4821;SDS011;2425;47.794;13.068;2022-07-29T11:24:12;2.47;;;2.37;;
4821;SDS011;2425;47.794;13.068;2022-07-29T11:26:40;2.30;;;2.20;;
4821;SDS011;2425;47.794;13.068;2022-07-29T11:29:14;2.00;;;1.90;;
4821;SDS011;2425;47.794;13.068;2022-07-29T11:31:44;3.60;;;3.03;;
4821;SDS011;2425;47.794;13.068;2022-07-29T11:34:20;2.43;;;2.33;;
4821;SDS011;2425;47.794;13.068;2022-07-29T11:39:44;2.37;;;2.27;;
4821;SDS011;2425;47.794;13.068;2022-07-29T11:45:06;1.87;;;1.80;;
4821;SDS011;2425;47.794;13.068;2022-07-29T11:47:34;2.30;;;2.07;;
4821;SDS011;2425;47.794;13.068;2022-07-29T11:50:03;2.17;;;2.07;;
4821;SDS011;2425;47.794;13.068;2022-07-29T11:52:32;2.03;;;2.00;;
4821;SDS011;2425;47.794;13.068;2022-07-29T11:55:00;2.20;;;2.10;;
4821;SDS011;2425;47.794;13.068;2022-07-29T11:57:28;2.33;;;2.23;;
4821;SDS011;2425;47.794;13.068;2022-07-29T11:59:56;2.33;;;2.10;;
4821;SDS011;2425;47.794;13.068;2022-07-29T12:02:24;3.13;;;2.93;;
4821;SDS011;2425;47.794;13.068;2022-07-29T12:04:51;3.57;;;3.37;;
4821;SDS011;2425;47.794;13.068;2022-07-29T12:07:19;3.27;;;2.97;;
4821;SDS011;2425;47.794;13.068;2022-07-29T12:09:53;3.30;;;3.20;;
4821;SDS011;2425;47.794;13.068;2022-07-29T12:12:20;3.27;;;2.97;;
4821;SDS011;2425;47.794;13.068;2022-07-29T12:14:47;3.07;;;2.87;;
4821;SDS011;2425;47.794;13.068;2022-07-29T12:17:26;2.57;;;2.37;;
4821;SDS011;2425;47.794;13.068;2022-07-29T12:19:53;5.40;;;3.00;;
4821;SDS011;2425;47.794;13.068;2022-07-29T12:22:26;2.83;;;2.63;;
4821;SDS011;2425;47.794;13.068;2022-07-29T12:24:53;6.40;;;2.70;;
4821;SDS011;2425;47.794;13.068;2022-07-29T12:27:20;2.60;;;2.30;;
4821;SDS011;2425;47.794;13.068;2022-07-29T12:29:55;3.03;;;2.83;;
4821;SDS011;2425;47.794;13.068;2022-07-29T12:32:22;3.00;;;2.80;;
4821;SDS011;2425;47.794;13.068;2022-07-29T12:34:51;2.37;;;2.20;;
4821;SDS011;2425;47.794;13.068;2022-07-29T12:37:18;3.40;;;2.20;;
4821;SDS011;2425;47.794;13.068;2022-07-29T12:39:44;2.10;;;2.00;;
4821;SDS011;2425;47.794;13.068;2022-07-29T12:42:12;3.37;;;2.73;;
4821;SDS011;2425;47.794;13.068;2022-07-29T12:44:45;5.20;;;2.57;;
4821;SDS011;2425;47.794;13.068;2022-07-29T12:47:13;2.60;;;2.40;;
4821;SDS011;2425;47.794;13.068;2022-07-29T12:49:40;5.53;;;2.20;;
4821;SDS011;2425;47.794;13.068;2022-07-29T12:52:30;18.70;;;1.90;;
4821;SDS011;2425;47.794;13.068;2022-07-29T12:54:58;3.30;;;2.77;;
4821;SDS011;2425;47.794;13.068;2022-07-29T12:57:25;2.27;;;2.17;;
4821;SDS011;2425;47.794;13.068;2022-07-29T13:00:06;2.20;;;2.07;;
4821;SDS011;2425;47.794;13.068;2022-07-29T13:02:35;2.20;;;2.10;;
4821;SDS011;2425;47.794;13.068;2022-07-29T13:05:02;3.43;;;2.50;;
4821;SDS011;2425;47.794;13.068;2022-07-29T13:07:32;2.63;;;2.43;;
4821;SDS011;2425;47.794;13.068;2022-07-29T13:10:10;2.17;;;2.07;;
4821;SDS011;2425;47.794;13.068;2022-07-29T13:15:30;2.10;;;2.00;;
4821;SDS011;2425;47.794;13.068;2022-07-29T13:17:57;1.90;;;1.70;;
4821;SDS011;2425;47.794;13.068;2022-07-29T13:20:25;2.80;;;2.13;;
4821;SDS011;2425;47.794;13.068;2022-07-29T13:22:56;2.30;;;2.20;;
4821;SDS011;2425;47.794;13.068;2022-07-29T13:25:23;2.70;;;2.40;;
4821;SDS011;2425;47.794;13.068;2022-07-29T13:27:51;1.90;;;1.80;;
4821;SDS011;2425;47.794;13.068;2022-07-29T13:30:19;1.93;;;1.80;;
4821;SDS011;2425;47.794;13.068;2022-07-29T13:32:46;1.87;;;1.87;;
4821;SDS011;2425;47.794;13.068;2022-07-29T13:35:13;1.90;;;1.80;;
4821;SDS011;2425;47.794;13.068;2022-07-29T13:37:40;2.10;;;2.00;;
4821;SDS011;2425;47.794;13.068;2022-07-29T13:40:09;2.20;;;2.07;;
4821;SDS011;2425;47.794;13.068;2022-07-29T13:42:36;2.20;;;2.10;;
4821;SDS011;2425;47.794;13.068;2022-07-29T13:45:04;4.07;;;2.27;;
4821;SDS011;2425;47.794;13.068;2022-07-29T13:47:32;2.10;;;2.00;;
4821;SDS011;2425;47.794;13.068;2022-07-29T13:49:59;1.93;;;1.80;;
4821;SDS011;2425;47.794;13.068;2022-07-29T13:52:26;2.33;;;2.20;;
4821;SDS011;2425;47.794;13.068;2022-07-29T13:54:53;2.20;;;2.00;;
4821;SDS011;2425;47.794;13.068;2022-07-29T13:57:21;2.00;;;1.90;;
4821;SDS011;2425;47.794;13.068;2022-07-29T13:59:48;2.30;;;2.20;;
4821;SDS011;2425;47.794;13.068;2022-07-29T14:02:16;4.07;;;1.93;;
4821;SDS011;2425;47.794;13.068;2022-07-29T14:05:01;5.00;;;2.10;;
4821;SDS011;2425;47.794;13.068;2022-07-29T14:07:28;3.00;;;2.60;;
4821;SDS011;2425;47.794;13.068;2022-07-29T14:09:54;2.37;;;2.23;;
4821;SDS011;2425;47.794;13.068;2022-07-29T14:12:21;4.20;;;1.80;;
4821;SDS011;2425;47.794;13.068;2022-07-29T14:14:48;2.20;;;2.00;;
4821;SDS011;2425;47.794;13.068;2022-07-29T14:17:15;2.13;;;2.03;;
4821;SDS011;2425;47.794;13.068;2022-07-29T14:19:42;2.20;;;2.10;;
4821;SDS011;2425;47.794;13.068;2022-07-29T14:22:10;3.17;;;2.40;;
4821;SDS011;2425;47.794;13.068;2022-07-29T14:24:37;3.63;;;2.13;;
4821;SDS011;2425;47.794;13.068;2022-07-29T14:27:04;2.80;;;2.37;;
4821;SDS011;2425;47.794;13.068;2022-07-29T14:29:32;2.93;;;2.17;;
4821;SDS011;2425;47.794;13.068;2022-07-29T14:31:58;5.90;;;2.40;;
4821;SDS011;2425;47.794;13.068;2022-07-29T14:34:25;1.87;;;1.87;;
4821;SDS011;2425;47.794;13.068;2022-07-29T14:36:52;3.03;;;2.70;;
4821;SDS011;2425;47.794;13.068;2022-07-29T14:39:22;7.97;;;2.63;;
4821;SDS011;2425;47.794;13.068;2022-07-29T14:41:49;4.17;;;2.30;;
4821;SDS011;2425;47.794;13.068;2022-07-29T14:44:16;2.30;;;2.20;;
4821;SDS011;2425;47.794;13.068;2022-07-29T14:46:42;2.43;;;2.23;;
4821;SDS011;2425;47.794;13.068;2022-07-29T14:49:09;3.47;;;2.10;;
4821;SDS011;2425;47.794;13.068;2022-07-29T14:51:36;2.30;;;2.20;;
4821;SDS011;2425;47.794;13.068;2022-07-29T14:54:03;3.77;;;2.17;;
4821;SDS011;2425;47.794;13.068;2022-07-29T14:56:31;5.50;;;2.00;;
4821;SDS011;2425;47.794;13.068;2022-07-29T14:58:58;3.90;;;3.70;;
4821;SDS011;2425;47.794;13.068;2022-07-29T15:01:25;11.73;;;7.80;;
4821;SDS011;2425;47.794;13.068;2022-07-29T15:03:52;6.03;;;5.53;;
4821;SDS011;2425;47.794;13.068;2022-07-29T15:06:19;6.07;;;5.57;;
4821;SDS011;2425;47.794;13.068;2022-07-29T15:08:46;7.00;;;5.17;;
4821;SDS011;2425;47.794;13.068;2022-07-29T15:11:12;4.33;;;4.03;;
4821;SDS011;2425;47.794;13.068;2022-07-29T15:13:40;4.30;;;4.00;;
4821;SDS011;2425;47.794;13.068;2022-07-29T15:16:07;4.00;;;3.70;;
4821;SDS011;2425;47.794;13.068;2022-07-29T15:18:35;3.17;;;3.00;;
4821;SDS011;2425;47.794;13.068;2022-07-29T15:21:03;3.37;;;3.17;;
4821;SDS011;2425;47.794;13.068;2022-07-29T15:23:31;2.83;;;2.70;;
4821;SDS011;2425;47.794;13.068;2022-07-29T15:25:58;3.00;;;2.80;;
4821;SDS011;2425;47.794;13.068;2022-07-29T15:28:25;2.00;;;2.00;;
4821;SDS011;2425;47.794;13.068;2022-07-29T15:30:53;5.23;;;2.80;;
4821;SDS011;2425;47.794;13.068;2022-07-29T15:33:20;4.30;;;2.37;;
4821;SDS011;2425;47.794;13.068;2022-07-29T15:35:47;7.37;;;2.70;;